sensor_id;sensor_type;location;lat;lon;timestamp;P1;durP1;ratioP1;P2;durP2;ratioP2
4630;SDS011;2328;48.170;11.602;2023-11-19T00:00:08;1.87;;;0.50;;
4630;SDS011;2328;48.170;11.602;2023-11-19T00:02:41;1.00;;;0.80;;
4630;SDS011;2328;48.170;11.602;2023-11-19T00:05:10;1.57;;;0.70;;
4630;SDS011;2328;48.170;11.602;2023-11-19T00:07:42;0.90;;;0.90;;
4630;SDS011;2328;48.170;11.602;2023-11-19T00:10:11;0.73;;;0.73;;
4630;SDS011;2328;48.170;11.602;2023-11-19T00:12:40;1.10;;;0.87;;
4630;SDS011;2328;48.170;11.602;2023-11-19T00:15:11;0.87;;;0.53;;
4630;SDS011;2328;48.170;11.602;2023-11-19T00:17:41;0.80;;;0.70;;
4630;SDS011;2328;48.170;11.602;2023-11-19T00:20:12;0.70;;;0.53;;
4630;SDS011;2328;48.170;11.602;2023-11-19T00:22:41;5.50;;;0.90;;
4630;SDS011;2328;48.170;11.602;2023-11-19T00:25:12;0.80;;;0.80;;
4630;SDS011;2328;48.170;11.602;2023-11-19T00:27:41;0.60;;;0.60;;
4630;SDS011;2328;48.170;11.602;2023-11-19T00:30:11;1.17;;;0.83;;
4630;SDS011;2328;48.170;11.602;2023-11-19T00:32:42;1.93;;;1.17;;
4630;SDS011;2328;48.170;11.602;2023-11-19T00:35:12;3.90;;;0.50;;
4630;SDS011;2328;48.170;11.602;2023-11-19T00:37:42;1.27;;;0.73;;
4630;SDS011;2328;48.170;11.602;2023-11-19T00:40:12;1.37;;;1.00;;
4630;SDS011;2328;48.170;11.602;2023-11-19T00:42:44;2.87;;;0.97;;
4630;SDS011;2328;48.170;11.602;2023-11-19T00:45:15;0.83;;;0.70;;
4630;SDS011;2328;48.170;11.602;2023-11-19T00:47:49;1.40;;;1.27;;
4630;SDS011;2328;48.170;11.602;2023-11-19T00:50:21;0.90;;;0.90;;
4630;SDS011;2328;48.170;11.602;2023-11-19T00:52:50;2.03;;;1.00;;
4630;SDS011;2328;48.170;11.602;2023-11-19T00:55:20;1.37;;;0.90;;
4630;SDS011;2328;48.170;11.602;2023-11-19T00:57:50;2.27;;;1.10;;
4630;SDS011;2328;48.170;11.602;2023-11-19T01:00:18;2.77;;;1.00;;
4630;SDS011;2328;48.170;11.602;2023-11-19T01:02:52;0.60;;;0.50;;
4630;SDS011;2328;48.170;11.602;2023-11-19T01:05:20;1.53;;;1.00;;
4630;SDS011;2328;48.170;11.602;2023-11-19T01:07:49;0.60;;;0.60;;
4630;SDS011;2328;48.170;11.602;2023-11-19T01:10:20;0.93;;;0.70;;
4630;SDS011;2328;48.170;11.602;2023-11-19T01:12:48;1.63;;;1.17;;
4630;SDS011;2328;48.170;11.602;2023-11-19T01:15:17;1.00;;;0.80;;
4630;SDS011;2328;48.170;11.602;2023-11-19T01:17:47;0.90;;;0.90;;
4630;SDS011;2328;48.170;11.602;2023-11-19T01:20:21;0.90;;;0.70;;
4630;SDS011;2328;48.170;11.602;2023-11-19T01:22:49;1.33;;;1.07;;
4630;SDS011;2328;48.170;11.602;2023-11-19T01:25:18;1.93;;;1.07;;
4630;SDS011;2328;48.170;11.602;2023-11-19T01:27:56;1.33;;;0.90;;
4630;SDS011;2328;48.170;11.602;2023-11-19T01:30:24;1.23;;;0.90;;
4630;SDS011;2328;48.170;11.602;2023-11-19T01:32:53;0.70;;;0.60;;
4630;SDS011;2328;48.170;11.602;2023-11-19T01:35:25;1.00;;;0.70;;
4630;SDS011;2328;48.170;11.602;2023-11-19T01:37:54;1.37;;;0.87;;
4630;SDS011;2328;48.170;11.602;2023-11-19T01:40:22;0.70;;;0.60;;
4630;SDS011;2328;48.170;11.602;2023-11-19T01:42:51;1.63;;;0.90;;
4630;SDS011;2328;48.170;11.602;2023-11-19T01:45:22;0.73;;;0.73;;
4630;SDS011;2328;48.170;11.602;2023-11-19T01:47:54;0.90;;;0.67;;
4630;SDS011;2328;48.170;11.602;2023-11-19T01:50:24;1.20;;;0.67;;
4630;SDS011;2328;48.170;11.602;2023-11-19T01:52:53;0.70;;;0.70;;
4630;SDS011;2328;48.170;11.602;2023-11-19T01:55:25;0.70;;;0.50;;
4630;SDS011;2328;48.170;11.602;2023-11-19T01:57:55;0.60;;;0.43;;
4630;SDS011;2328;48.170;11.602;2023-11-19T02:00:28;1.10;;;0.97;;
4630;SDS011;2328;48.170;11.602;2023-11-19T02:02:56;1.30;;;0.77;;
4630;SDS011;2328;48.170;11.602;2023-11-19T02:05:26;1.23;;;0.70;;
4630;SDS011;2328;48.170;11.602;2023-11-19T02:07:55;4.73;;;1.00;;
4630;SDS011;2328;48.170;11.602;2023-11-19T02:10:23;1.10;;;0.90;;
4630;SDS011;2328;48.170;11.602;2023-11-19T02:12:52;0.90;;;0.70;;
4630;SDS011;2328;48.170;11.602;2023-11-19T02:15:32;0.50;;;0.40;;
4630;SDS011;2328;48.170;11.602;2023-11-19T02:20:50;0.63;;;0.50;;
4630;SDS011;2328;48.170;11.602;2023-11-19T02:23:21;0.97;;;0.83;;
4630;SDS011;2328;48.170;11.602;2023-11-19T02:25:54;0.80;;;0.80;;
4630;SDS011;2328;48.170;11.602;2023-11-19T02:28:26;0.60;;;0.50;;
4630;SDS011;2328;48.170;11.602;2023-11-19T02:30:54;0.90;;;0.80;;
4630;SDS011;2328;48.170;11.602;2023-11-19T02:33:23;0.77;;;0.53;;
4630;SDS011;2328;48.170;11.602;2023-11-19T02:35:52;1.80;;;0.70;;
4630;SDS011;2328;48.170;11.602;2023-11-19T02:38:21;0.60;;;0.43;;
4630;SDS011;2328;48.170;11.602;2023-11-19T02:40:50;0.80;;;0.67;;
4630;SDS011;2328;48.170;11.602;2023-11-19T02:43:19;0.73;;;0.60;;
4630;SDS011;2328;48.170;11.602;2023-11-19T02:45:49;1.33;;;0.67;;
4630;SDS011;2328;48.170;11.602;2023-11-19T02:48:23;0.50;;;0.50;;
4630;SDS011;2328;48.170;11.602;2023-11-19T02:50:51;0.97;;;0.73;;
4630;SDS011;2328;48.170;11.602;2023-11-19T02:53:20;1.27;;;0.73;;
4630;SDS011;2328;48.170;11.602;2023-11-19T02:55:48;0.80;;;0.80;;
4630;SDS011;2328;48.170;11.602;2023-11-19T02:58:17;1.00;;;0.43;;
4630;SDS011;2328;48.170;11.602;2023-11-19T03:00:53;1.00;;;0.80;;
4630;SDS011;2328;48.170;11.602;2023-11-19T03:03:24;0.70;;;0.63;;
4630;SDS011;2328;48.170;11.602;2023-11-19T03:05:57;1.30;;;0.70;;
4630;SDS011;2328;48.170;11.602;2023-11-19T03:08:26;0.70;;;0.70;;
4630;SDS011;2328;48.170;11.602;2023-11-19T03:10:55;0.70;;;0.53;;
4630;SDS011;2328;48.170;11.602;2023-11-19T03:13:25;2.10;;;1.07;;
4630;SDS011;2328;48.170;11.602;2023-11-19T03:15:56;1.33;;;0.60;;
4630;SDS011;2328;48.170;11.602;2023-11-19T03:18:24;0.87;;;0.67;;
4630;SDS011;2328;48.170;11.602;2023-11-19T03:20:54;0.60;;;0.50;;
4630;SDS011;2328;48.170;11.602;2023-11-19T03:23:24;0.63;;;0.60;;
4630;SDS011;2328;48.170;11.602;2023-11-19T03:25:54;1.17;;;0.80;;
4630;SDS011;2328;48.170;11.602;2023-11-19T03:28:23;1.13;;;0.80;;
4630;SDS011;2328;48.170;11.602;2023-11-19T03:30:52;1.00;;;0.90;;
4630;SDS011;2328;48.170;11.602;2023-11-19T03:33:23;0.60;;;0.50;;
4630;SDS011;2328;48.170;11.602;2023-11-19T03:35:52;0.90;;;0.60;;
4630;SDS011;2328;48.170;11.602;2023-11-19T03:38:20;0.80;;;0.70;;
4630;SDS011;2328;48.170;11.602;2023-11-19T03:40:49;0.60;;;0.50;;
4630;SDS011;2328;48.170;11.602;2023-11-19T03:43:18;1.00;;;0.50;;
4630;SDS011;2328;48.170;11.602;2023-11-19T03:45:48;0.70;;;0.60;;
4630;SDS011;2328;48.170;11.602;2023-11-19T03:48:17;1.23;;;0.57;;
4630;SDS011;2328;48.170;11.602;2023-11-19T03:50:47;1.73;;;0.60;;
4630;SDS011;2328;48.170;11.602;2023-11-19T03:53:16;0.80;;;0.80;;
4630;SDS011;2328;48.170;11.602;2023-11-19T03:55:45;2.00;;;0.60;;
4630;SDS011;2328;48.170;11.602;2023-11-19T03:58:13;1.00;;;0.90;;
4630;SDS011;2328;48.170;11.602;2023-11-19T04:00:42;0.97;;;0.70;;
4630;SDS011;2328;48.170;11.602;2023-11-19T04:03:11;1.60;;;0.97;;
4630;SDS011;2328;48.170;11.602;2023-11-19T04:05:39;0.80;;;0.70;;
4630;SDS011;2328;48.170;11.602;2023-11-19T04:08:09;1.90;;;1.10;;
4630;SDS011;2328;48.170;11.602;2023-11-19T04:10:37;0.87;;;0.63;;
4630;SDS011;2328;48.170;11.602;2023-11-19T04:13:06;0.70;;;0.70;;
4630;SDS011;2328;48.170;11.602;2023-11-19T04:15:34;1.53;;;0.60;;
4630;SDS011;2328;48.170;11.602;2023-11-19T04:18:03;1.00;;;0.70;;
4630;SDS011;2328;48.170;11.602;2023-11-19T04:20:32;0.60;;;0.40;;
4630;SDS011;2328;48.170;11.602;2023-11-19T04:23:00;0.60;;;0.47;;
4630;SDS011;2328;48.170;11.602;2023-11-19T04:25:30;0.60;;;0.30;;
4630;SDS011;2328;48.170;11.602;2023-11-19T04:27:59;0.50;;;0.30;;
4630;SDS011;2328;48.170;11.602;2023-11-19T04:30:28;0.47;;;0.30;;
4630;SDS011;2328;48.170;11.602;2023-11-19T04:32:58;0.80;;;0.60;;
4630;SDS011;2328;48.170;11.602;2023-11-19T04:35:27;0.50;;;0.40;;
4630;SDS011;2328;48.170;11.602;2023-11-19T04:37:56;0.50;;;0.30;;
4630;SDS011;2328;48.170;11.602;2023-11-19T04:40:25;0.50;;;0.40;;
4630;SDS011;2328;48.170;11.602;2023-11-19T04:42:55;0.77;;;0.43;;
4630;SDS011;2328;48.170;11.602;2023-11-19T04:45:24;0.50;;;0.37;;
4630;SDS011;2328;48.170;11.602;2023-11-19T04:47:52;0.50;;;0.30;;
4630;SDS011;2328;48.170;11.602;2023-11-19T04:50:21;0.67;;;0.43;;
4630;SDS011;2328;48.170;11.602;2023-11-19T04:52:49;0.50;;;0.30;;
4630;SDS011;2328;48.170;11.602;2023-11-19T04:55:17;0.50;;;0.30;;
4630;SDS011;2328;48.170;11.602;2023-11-19T04:57:46;2.10;;;0.30;;
4630;SDS011;2328;48.170;11.602;2023-11-19T05:00:16;2.40;;;0.33;;
4630;SDS011;2328;48.170;11.602;2023-11-19T05:02:48;1.10;;;0.37;;
4630;SDS011;2328;48.170;11.602;2023-11-19T05:05:17;0.40;;;0.30;;
4630;SDS011;2328;48.170;11.602;2023-11-19T05:07:46;0.53;;;0.43;;
4630;SDS011;2328;48.170;11.602;2023-11-19T05:10:14;0.50;;;0.30;;
4630;SDS011;2328;48.170;11.602;2023-11-19T05:12:43;0.53;;;0.40;;
4630;SDS011;2328;48.170;11.602;2023-11-19T05:15:12;0.50;;;0.33;;
4630;SDS011;2328;48.170;11.602;2023-11-19T05:17:43;0.70;;;0.60;;
4630;SDS011;2328;48.170;11.602;2023-11-19T05:20:11;0.77;;;0.33;;
4630;SDS011;2328;48.170;11.602;2023-11-19T05:22:41;0.60;;;0.50;;
4630;SDS011;2328;48.170;11.602;2023-11-19T05:27:56;0.60;;;0.37;;
4630;SDS011;2328;48.170;11.602;2023-11-19T05:30:24;0.50;;;0.30;;
4630;SDS011;2328;48.170;11.602;2023-11-19T05:32:54;1.40;;;0.50;;
4630;SDS011;2328;48.170;11.602;2023-11-19T05:35:23;0.50;;;0.30;;
4630;SDS011;2328;48.170;11.602;2023-11-19T05:37:51;2.90;;;0.50;;
4630;SDS011;2328;48.170;11.602;2023-11-19T05:40:20;0.50;;;0.40;;
4630;SDS011;2328;48.170;11.602;2023-11-19T05:42:48;1.23;;;0.60;;
4630;SDS011;2328;48.170;11.602;2023-11-19T05:45:17;0.50;;;0.40;;
4630;SDS011;2328;48.170;11.602;2023-11-19T05:47:46;0.50;;;0.30;;
4630;SDS011;2328;48.170;11.602;2023-11-19T05:50:16;0.53;;;0.33;;
4630;SDS011;2328;48.170;11.602;2023-11-19T05:52:45;0.60;;;0.50;;
4630;SDS011;2328;48.170;11.602;2023-11-19T05:55:14;1.20;;;0.57;;
4630;SDS011;2328;48.170;11.602;2023-11-19T05:57:43;0.50;;;0.40;;
4630;SDS011;2328;48.170;11.602;2023-11-19T06:00:13;0.70;;;0.70;;
4630;SDS011;2328;48.170;11.602;2023-11-19T06:02:42;0.50;;;0.30;;
4630;SDS011;2328;48.170;11.602;2023-11-19T06:05:11;0.73;;;0.40;;
4630;SDS011;2328;48.170;11.602;2023-11-19T06:07:41;0.60;;;0.40;;
4630;SDS011;2328;48.170;11.602;2023-11-19T06:10:10;0.50;;;0.37;;
4630;SDS011;2328;48.170;11.602;2023-11-19T06:12:40;0.60;;;0.37;;
4630;SDS011;2328;48.170;11.602;2023-11-19T06:15:09;0.60;;;0.40;;
4630;SDS011;2328;48.170;11.602;2023-11-19T06:17:38;0.57;;;0.40;;
4630;SDS011;2328;48.170;11.602;2023-11-19T06:20:07;1.10;;;0.40;;
4630;SDS011;2328;48.170;11.602;2023-11-19T06:22:38;0.50;;;0.47;;
4630;SDS011;2328;48.170;11.602;2023-11-19T06:25:10;0.80;;;0.40;;
4630;SDS011;2328;48.170;11.602;2023-11-19T06:27:41;0.50;;;0.40;;
4630;SDS011;2328;48.170;11.602;2023-11-19T06:30:10;0.83;;;0.50;;
4630;SDS011;2328;48.170;11.602;2023-11-19T06:32:39;0.50;;;0.30;;
4630;SDS011;2328;48.170;11.602;2023-11-19T06:35:08;0.67;;;0.40;;
4630;SDS011;2328;48.170;11.602;2023-11-19T06:37:38;0.50;;;0.40;;
4630;SDS011;2328;48.170;11.602;2023-11-19T06:40:07;0.50;;;0.30;;
4630;SDS011;2328;48.170;11.602;2023-11-19T06:42:38;0.80;;;0.43;;
4630;SDS011;2328;48.170;11.602;2023-11-19T06:45:07;0.50;;;0.30;;
4630;SDS011;2328;48.170;11.602;2023-11-19T06:47:35;0.50;;;0.40;;
4630;SDS011;2328;48.170;11.602;2023-11-19T06:50:05;0.50;;;0.30;;
4630;SDS011;2328;48.170;11.602;2023-11-19T06:52:33;0.50;;;0.40;;
4630;SDS011;2328;48.170;11.602;2023-11-19T06:55:04;0.50;;;0.30;;
4630;SDS011;2328;48.170;11.602;2023-11-19T06:57:34;0.50;;;0.30;;
4630;SDS011;2328;48.170;11.602;2023-11-19T07:00:05;0.40;;;0.30;;
4630;SDS011;2328;48.170;11.602;2023-11-19T07:02:34;1.10;;;0.43;;
4630;SDS011;2328;48.170;11.602;2023-11-19T07:05:03;0.53;;;0.40;;
4630;SDS011;2328;48.170;11.602;2023-11-19T07:07:31;0.50;;;0.30;;
4630;SDS011;2328;48.170;11.602;2023-11-19T07:10:01;1.53;;;0.40;;
4630;SDS011;2328;48.170;11.602;2023-11-19T07:12:31;0.50;;;0.30;;
4630;SDS011;2328;48.170;11.602;2023-11-19T07:14:59;0.50;;;0.30;;
4630;SDS011;2328;48.170;11.602;2023-11-19T07:17:30;0.50;;;0.33;;
4630;SDS011;2328;48.170;11.602;2023-11-19T07:19:58;0.50;;;0.37;;
4630;SDS011;2328;48.170;11.602;2023-11-19T07:22:27;0.50;;;0.30;;
4630;SDS011;2328;48.170;11.602;2023-11-19T07:24:56;0.60;;;0.43;;
4630;SDS011;2328;48.170;11.602;2023-11-19T07:27:25;0.57;;;0.27;;
4630;SDS011;2328;48.170;11.602;2023-11-19T07:29:54;0.50;;;0.30;;
4630;SDS011;2328;48.170;11.602;2023-11-19T07:32:22;0.50;;;0.40;;
4630;SDS011;2328;48.170;11.602;2023-11-19T07:34:52;0.40;;;0.30;;
4630;SDS011;2328;48.170;11.602;2023-11-19T07:37:22;1.37;;;0.30;;
4630;SDS011;2328;48.170;11.602;2023-11-19T07:39:51;0.50;;;0.40;;
4630;SDS011;2328;48.170;11.602;2023-11-19T07:42:19;0.50;;;0.30;;
4630;SDS011;2328;48.170;11.602;2023-11-19T07:44:48;0.50;;;0.30;;
4630;SDS011;2328;48.170;11.602;2023-11-19T07:47:16;0.50;;;0.30;;
4630;SDS011;2328;48.170;11.602;2023-11-19T07:49:45;0.90;;;0.40;;
4630;SDS011;2328;48.170;11.602;2023-11-19T07:52:17;0.40;;;0.30;;
4630;SDS011;2328;48.170;11.602;2023-11-19T07:54:47;0.60;;;0.40;;
4630;SDS011;2328;48.170;11.602;2023-11-19T07:57:15;0.40;;;0.30;;
4630;SDS011;2328;48.170;11.602;2023-11-19T07:59:44;0.50;;;0.40;;
4630;SDS011;2328;48.170;11.602;2023-11-19T08:02:12;0.60;;;0.40;;
4630;SDS011;2328;48.170;11.602;2023-11-19T08:04:41;0.53;;;0.40;;
4630;SDS011;2328;48.170;11.602;2023-11-19T08:07:12;0.50;;;0.30;;
4630;SDS011;2328;48.170;11.602;2023-11-19T08:09:42;0.60;;;0.33;;
4630;SDS011;2328;48.170;11.602;2023-11-19T08:12:11;0.50;;;0.40;;
4630;SDS011;2328;48.170;11.602;2023-11-19T08:14:40;0.50;;;0.30;;
4630;SDS011;2328;48.170;11.602;2023-11-19T08:17:10;0.50;;;0.30;;
4630;SDS011;2328;48.170;11.602;2023-11-19T08:19:38;0.60;;;0.40;;
4630;SDS011;2328;48.170;11.602;2023-11-19T08:22:07;0.93;;;0.50;;
4630;SDS011;2328;48.170;11.602;2023-11-19T08:24:36;0.60;;;0.40;;
4630;SDS011;2328;48.170;11.602;2023-11-19T08:27:07;0.50;;;0.40;;
4630;SDS011;2328;48.170;11.602;2023-11-19T08:29:35;0.57;;;0.40;;
4630;SDS011;2328;48.170;11.602;2023-11-19T08:32:04;0.50;;;0.33;;
4630;SDS011;2328;48.170;11.602;2023-11-19T08:34:33;0.57;;;0.40;;
4630;SDS011;2328;48.170;11.602;2023-11-19T08:37:02;0.50;;;0.33;;
4630;SDS011;2328;48.170;11.602;2023-11-19T08:39:30;0.50;;;0.30;;
4630;SDS011;2328;48.170;11.602;2023-11-19T08:41:58;0.60;;;0.50;;
4630;SDS011;2328;48.170;11.602;2023-11-19T08:44:28;0.50;;;0.30;;
4630;SDS011;2328;48.170;11.602;2023-11-19T08:46:56;0.60;;;0.30;;
4630;SDS011;2328;48.170;11.602;2023-11-19T08:49:25;1.63;;;0.30;;
4630;SDS011;2328;48.170;11.602;2023-11-19T08:51:54;0.40;;;0.30;;
4630;SDS011;2328;48.170;11.602;2023-11-19T08:54:22;0.60;;;0.33;;
4630;SDS011;2328;48.170;11.602;2023-11-19T08:56:52;0.90;;;0.40;;
4630;SDS011;2328;48.170;11.602;2023-11-19T08:59:20;1.00;;;0.33;;
4630;SDS011;2328;48.170;11.602;2023-11-19T09:01:50;1.97;;;0.53;;
4630;SDS011;2328;48.170;11.602;2023-11-19T09:04:19;0.60;;;0.30;;
4630;SDS011;2328;48.170;11.602;2023-11-19T09:06:49;0.87;;;0.40;;
4630;SDS011;2328;48.170;11.602;2023-11-19T09:09:17;0.53;;;0.40;;
4630;SDS011;2328;48.170;11.602;2023-11-19T09:11:46;0.60;;;0.40;;
4630;SDS011;2328;48.170;11.602;2023-11-19T09:14:15;0.73;;;0.50;;
4630;SDS011;2328;48.170;11.602;2023-11-19T09:16:44;0.60;;;0.47;;
4630;SDS011;2328;48.170;11.602;2023-11-19T09:19:14;1.23;;;0.50;;
4630;SDS011;2328;48.170;11.602;2023-11-19T09:21:43;0.50;;;0.30;;
4630;SDS011;2328;48.170;11.602;2023-11-19T09:24:12;0.50;;;0.30;;
4630;SDS011;2328;48.170;11.602;2023-11-19T09:26:42;0.87;;;0.53;;
4630;SDS011;2328;48.170;11.602;2023-11-19T09:29:11;0.50;;;0.30;;
4630;SDS011;2328;48.170;11.602;2023-11-19T09:31:40;0.63;;;0.40;;
4630;SDS011;2328;48.170;11.602;2023-11-19T09:34:09;0.80;;;0.40;;
4630;SDS011;2328;48.170;11.602;2023-11-19T09:36:39;0.73;;;0.50;;
4630;SDS011;2328;48.170;11.602;2023-11-19T09:39:10;0.70;;;0.50;;
4630;SDS011;2328;48.170;11.602;2023-11-19T09:41:43;1.10;;;0.40;;
4630;SDS011;2328;48.170;11.602;2023-11-19T09:44:13;2.20;;;0.40;;
4630;SDS011;2328;48.170;11.602;2023-11-19T09:46:44;1.13;;;0.53;;
4630;SDS011;2328;48.170;11.602;2023-11-19T09:49:15;0.60;;;0.60;;
4630;SDS011;2328;48.170;11.602;2023-11-19T09:52:03;0.70;;;0.60;;
4630;SDS011;2328;48.170;11.602;2023-11-19T09:54:32;0.70;;;0.43;;
4630;SDS011;2328;48.170;11.602;2023-11-19T09:57:00;0.60;;;0.50;;
4630;SDS011;2328;48.170;11.602;2023-11-19T09:59:30;0.70;;;0.50;;
4630;SDS011;2328;48.170;11.602;2023-11-19T10:01:59;1.37;;;0.40;;
4630;SDS011;2328;48.170;11.602;2023-11-19T10:04:29;0.70;;;0.40;;
4630;SDS011;2328;48.170;11.602;2023-11-19T10:06:58;1.43;;;0.60;;
4630;SDS011;2328;48.170;11.602;2023-11-19T10:09:27;0.50;;;0.40;;
4630;SDS011;2328;48.170;11.602;2023-11-19T10:11:56;0.90;;;0.60;;
4630;SDS011;2328;48.170;11.602;2023-11-19T10:14:24;0.60;;;0.40;;
4630;SDS011;2328;48.170;11.602;2023-11-19T10:16:54;0.50;;;0.40;;
4630;SDS011;2328;48.170;11.602;2023-11-19T10:19:23;0.93;;;0.40;;
4630;SDS011;2328;48.170;11.602;2023-11-19T10:21:51;0.70;;;0.40;;
4630;SDS011;2328;48.170;11.602;2023-11-19T10:24:31;0.60;;;0.50;;
4630;SDS011;2328;48.170;11.602;2023-11-19T10:27:06;0.73;;;0.30;;
4630;SDS011;2328;48.170;11.602;2023-11-19T10:29:36;0.70;;;0.40;;
4630;SDS011;2328;48.170;11.602;2023-11-19T10:32:05;1.67;;;0.60;;
4630;SDS011;2328;48.170;11.602;2023-11-19T10:34:52;6.43;;;0.60;;
4630;SDS011;2328;48.170;11.602;2023-11-19T10:37:29;0.70;;;0.47;;
4630;SDS011;2328;48.170;11.602;2023-11-19T10:40:01;0.70;;;0.50;;
4630;SDS011;2328;48.170;11.602;2023-11-19T10:42:31;1.00;;;0.40;;
4630;SDS011;2328;48.170;11.602;2023-11-19T10:44:59;0.60;;;0.40;;
4630;SDS011;2328;48.170;11.602;2023-11-19T10:47:28;0.70;;;0.30;;
4630;SDS011;2328;48.170;11.602;2023-11-19T10:50:00;1.10;;;0.50;;
4630;SDS011;2328;48.170;11.602;2023-11-19T10:52:28;0.70;;;0.50;;
4630;SDS011;2328;48.170;11.602;2023-11-19T10:54:57;1.53;;;0.50;;
4630;SDS011;2328;48.170;11.602;2023-11-19T10:57:29;0.67;;;0.57;;
4630;SDS011;2328;48.170;11.602;2023-11-19T11:00:00;0.60;;;0.40;;
4630;SDS011;2328;48.170;11.602;2023-11-19T11:02:29;4.57;;;0.50;;
4630;SDS011;2328;48.170;11.602;2023-11-19T11:04:58;0.60;;;0.50;;
4630;SDS011;2328;48.170;11.602;2023-11-19T11:07:29;0.53;;;0.40;;
4630;SDS011;2328;48.170;11.602;2023-11-19T11:10:07;0.63;;;0.40;;
4630;SDS011;2328;48.170;11.602;2023-11-19T11:12:37;0.70;;;0.53;;
4630;SDS011;2328;48.170;11.602;2023-11-19T11:15:08;0.50;;;0.30;;
4630;SDS011;2328;48.170;11.602;2023-11-19T11:17:39;2.50;;;0.40;;
4630;SDS011;2328;48.170;11.602;2023-11-19T11:20:10;0.50;;;0.40;;
4630;SDS011;2328;48.170;11.602;2023-11-19T11:22:44;0.73;;;0.50;;
4630;SDS011;2328;48.170;11.602;2023-11-19T11:25:23;0.50;;;0.30;;
4630;SDS011;2328;48.170;11.602;2023-11-19T11:28:07;0.73;;;0.40;;
4630;SDS011;2328;48.170;11.602;2023-11-19T11:30:39;0.60;;;0.40;;
4630;SDS011;2328;48.170;11.602;2023-11-19T11:33:17;0.50;;;0.37;;
4630;SDS011;2328;48.170;11.602;2023-11-19T11:35:50;0.50;;;0.30;;
4630;SDS011;2328;48.170;11.602;2023-11-19T11:38:21;0.87;;;0.50;;
4630;SDS011;2328;48.170;11.602;2023-11-19T11:43:48;0.50;;;0.40;;
4630;SDS011;2328;48.170;11.602;2023-11-19T11:49:04;0.50;;;0.30;;
4630;SDS011;2328;48.170;11.602;2023-11-19T11:54:28;0.70;;;0.50;;
4630;SDS011;2328;48.170;11.602;2023-11-19T11:57:03;0.50;;;0.30;;
4630;SDS011;2328;48.170;11.602;2023-11-19T12:02:22;0.70;;;0.50;;
4630;SDS011;2328;48.170;11.602;2023-11-19T12:04:52;0.90;;;0.40;;
4630;SDS011;2328;48.170;11.602;2023-11-19T12:07:21;0.60;;;0.30;;
4630;SDS011;2328;48.170;11.602;2023-11-19T12:09:51;0.60;;;0.40;;
4630;SDS011;2328;48.170;11.602;2023-11-19T12:12:22;1.13;;;0.53;;
4630;SDS011;2328;48.170;11.602;2023-11-19T12:15:01;0.50;;;0.40;;
4630;SDS011;2328;48.170;11.602;2023-11-19T12:17:49;0.60;;;0.30;;
4630;SDS011;2328;48.170;11.602;2023-11-19T12:20:18;1.93;;;0.47;;
4630;SDS011;2328;48.170;11.602;2023-11-19T12:22:50;0.60;;;0.40;;
4630;SDS011;2328;48.170;11.602;2023-11-19T12:25:19;0.60;;;0.33;;
4630;SDS011;2328;48.170;11.602;2023-11-19T12:27:49;0.57;;;0.30;;
4630;SDS011;2328;48.170;11.602;2023-11-19T12:30:21;0.60;;;0.30;;
4630;SDS011;2328;48.170;11.602;2023-11-19T12:32:52;2.20;;;0.53;;
4630;SDS011;2328;48.170;11.602;2023-11-19T12:35:21;0.60;;;0.40;;
4630;SDS011;2328;48.170;11.602;2023-11-19T12:37:50;0.80;;;0.30;;
4630;SDS011;2328;48.170;11.602;2023-11-19T12:40:20;0.70;;;0.40;;
4630;SDS011;2328;48.170;11.602;2023-11-19T12:42:49;0.50;;;0.30;;
4630;SDS011;2328;48.170;11.602;2023-11-19T12:45:19;0.50;;;0.30;;
4630;SDS011;2328;48.170;11.602;2023-11-19T12:47:51;0.50;;;0.30;;
4630;SDS011;2328;48.170;11.602;2023-11-19T12:53:15;1.27;;;0.57;;
4630;SDS011;2328;48.170;11.602;2023-11-19T12:55:43;0.50;;;0.33;;
4630;SDS011;2328;48.170;11.602;2023-11-19T13:01:05;0.50;;;0.30;;
4630;SDS011;2328;48.170;11.602;2023-11-19T13:03:36;0.50;;;0.30;;
4630;SDS011;2328;48.170;11.602;2023-11-19T13:06:06;0.60;;;0.40;;
4630;SDS011;2328;48.170;11.602;2023-11-19T13:08:37;0.50;;;0.30;;
4630;SDS011;2328;48.170;11.602;2023-11-19T13:11:07;1.87;;;0.43;;
4630;SDS011;2328;48.170;11.602;2023-11-19T13:13:55;0.50;;;0.30;;
4630;SDS011;2328;48.170;11.602;2023-11-19T13:16:24;0.70;;;0.40;;
4630;SDS011;2328;48.170;11.602;2023-11-19T13:18:57;0.50;;;0.30;;
4630;SDS011;2328;48.170;11.602;2023-11-19T13:21:26;0.87;;;0.40;;
4630;SDS011;2328;48.170;11.602;2023-11-19T13:23:55;0.60;;;0.40;;
4630;SDS011;2328;48.170;11.602;2023-11-19T13:26:24;2.40;;;0.40;;
4630;SDS011;2328;48.170;11.602;2023-11-19T13:28:53;0.60;;;0.30;;
4630;SDS011;2328;48.170;11.602;2023-11-19T13:31:23;1.27;;;0.40;;
4630;SDS011;2328;48.170;11.602;2023-11-19T13:33:52;0.80;;;0.50;;
4630;SDS011;2328;48.170;11.602;2023-11-19T13:36:22;0.97;;;0.50;;
4630;SDS011;2328;48.170;11.602;2023-11-19T13:38:50;2.77;;;0.53;;
4630;SDS011;2328;48.170;11.602;2023-11-19T13:41:25;0.60;;;0.40;;
4630;SDS011;2328;48.170;11.602;2023-11-19T13:43:53;1.23;;;0.30;;
4630;SDS011;2328;48.170;11.602;2023-11-19T13:46:22;3.33;;;0.53;;
4630;SDS011;2328;48.170;11.602;2023-11-19T13:48:50;0.50;;;0.30;;
4630;SDS011;2328;48.170;11.602;2023-11-19T13:51:25;0.50;;;0.30;;
4630;SDS011;2328;48.170;11.602;2023-11-19T13:53:53;0.57;;;0.47;;
4630;SDS011;2328;48.170;11.602;2023-11-19T13:56:22;0.60;;;0.40;;
4630;SDS011;2328;48.170;11.602;2023-11-19T13:58:50;1.90;;;0.80;;
4630;SDS011;2328;48.170;11.602;2023-11-19T14:01:20;1.00;;;0.50;;
4630;SDS011;2328;48.170;11.602;2023-11-19T14:03:51;0.67;;;0.40;;
4630;SDS011;2328;48.170;11.602;2023-11-19T14:06:20;0.63;;;0.40;;
4630;SDS011;2328;48.170;11.602;2023-11-19T14:08:50;0.57;;;0.40;;
4630;SDS011;2328;48.170;11.602;2023-11-19T14:11:18;1.47;;;0.50;;
4630;SDS011;2328;48.170;11.602;2023-11-19T14:13:47;0.57;;;0.47;;
4630;SDS011;2328;48.170;11.602;2023-11-19T14:16:16;0.80;;;0.50;;
4630;SDS011;2328;48.170;11.602;2023-11-19T14:18:45;0.50;;;0.40;;
4630;SDS011;2328;48.170;11.602;2023-11-19T14:21:15;0.63;;;0.63;;
4630;SDS011;2328;48.170;11.602;2023-11-19T14:23:46;0.70;;;0.40;;
4630;SDS011;2328;48.170;11.602;2023-11-19T14:26:18;0.60;;;0.40;;
4630;SDS011;2328;48.170;11.602;2023-11-19T14:28:49;2.30;;;0.40;;
4630;SDS011;2328;48.170;11.602;2023-11-19T14:31:20;1.43;;;0.40;;
4630;SDS011;2328;48.170;11.602;2023-11-19T14:33:48;1.67;;;0.50;;
4630;SDS011;2328;48.170;11.602;2023-11-19T14:36:17;0.53;;;0.30;;
4630;SDS011;2328;48.170;11.602;2023-11-19T14:38:45;0.60;;;0.40;;
4630;SDS011;2328;48.170;11.602;2023-11-19T14:41:15;0.90;;;0.40;;
4630;SDS011;2328;48.170;11.602;2023-11-19T14:43:46;0.83;;;0.40;;
4630;SDS011;2328;48.170;11.602;2023-11-19T14:46:14;1.03;;;0.50;;
4630;SDS011;2328;48.170;11.602;2023-11-19T14:48:43;0.60;;;0.40;;
4630;SDS011;2328;48.170;11.602;2023-11-19T14:51:11;0.80;;;0.40;;
4630;SDS011;2328;48.170;11.602;2023-11-19T14:53:40;0.70;;;0.50;;
4630;SDS011;2328;48.170;11.602;2023-11-19T14:56:10;0.50;;;0.40;;
4630;SDS011;2328;48.170;11.602;2023-11-19T14:58:40;1.37;;;0.60;;
4630;SDS011;2328;48.170;11.602;2023-11-19T15:01:11;0.60;;;0.40;;
4630;SDS011;2328;48.170;11.602;2023-11-19T15:03:40;2.70;;;0.40;;
4630;SDS011;2328;48.170;11.602;2023-11-19T15:06:11;0.57;;;0.30;;
4630;SDS011;2328;48.170;11.602;2023-11-19T15:08:39;1.20;;;0.40;;
4630;SDS011;2328;48.170;11.602;2023-11-19T15:11:08;0.50;;;0.40;;
4630;SDS011;2328;48.170;11.602;2023-11-19T15:13:40;0.60;;;0.40;;
4630;SDS011;2328;48.170;11.602;2023-11-19T15:16:09;0.93;;;0.50;;
4630;SDS011;2328;48.170;11.602;2023-11-19T15:18:41;0.60;;;0.40;;
4630;SDS011;2328;48.170;11.602;2023-11-19T15:21:10;0.93;;;0.50;;
4630;SDS011;2328;48.170;11.602;2023-11-19T15:23:39;0.80;;;0.50;;
4630;SDS011;2328;48.170;11.602;2023-11-19T15:26:08;0.60;;;0.50;;
4630;SDS011;2328;48.170;11.602;2023-11-19T15:28:37;2.97;;;0.70;;
4630;SDS011;2328;48.170;11.602;2023-11-19T15:31:07;0.90;;;0.50;;
4630;SDS011;2328;48.170;11.602;2023-11-19T15:33:36;0.60;;;0.40;;
4630;SDS011;2328;48.170;11.602;2023-11-19T15:36:05;2.00;;;0.50;;
4630;SDS011;2328;48.170;11.602;2023-11-19T15:38:35;1.47;;;0.60;;